Pagrindinis puslapis
METAR-TAF:

METAR-TAF

Oro uostai :

Platinum, Aliaska, Jungtinės Amerikos Valstijos

platuma: 59-01N, ilguma: 161-49W, Aukštis: 3 m

Dabartinis oras

Ataskaita buvo paskelbta 7 minutes, ne 00:21 UTC
Vėjas 22 kt iš Šiaurės
Temperatūra -8°C
Drėgmė 85%
Slėgis 1010 hPa
Matomumas: 1.2 km
Apsiniaukę ne aukštis 1300 ft
sniegas, rūkana

METAR: PAPM 290021Z AUTO 36022KT 3/4SM -SN BR OVC013 M08/M10 A2982 RMK AO2 PK WND 35027/0005 P0000 FZRANO

Laikas: 16:28 (00:28 UTC)


TAF: trūkstamas

Orai ataskaitas ir orų prognozės (METAR, TAF).

turimą stotys yra geltonos ir raudonos taškus žemėlapyje.

Perkelti pele per norėdami pamatyti stoties vardą.

Tada spustelėkite, norėdami matyti oro stebėjimo ir prognozės.

Norėdami pakeisti žemėlapį: spustelėkite ant žalios mygtukų su juodo kryžiaus žemyn,; žalią mygtuką su brūkšneliu, jei norite nutolinti; arba žalių rodyklių gretimoms žemėlapius.


METAR-TAF: